Time;durP1;ratioP1;P1;durP2;ratioP2;P2;SDS_P1;SDS_P2;PMS_P1;PMS_P2;Temp;Humidity;BMP_temperature;BMP_pressure;BME280_temperature;BME280_humidity;BME280_pressure;Samples;Min_cycle;Max_cycle;Signal;HPM_P1;HPM_P2
2022/10/16 00:02:11;;;;;;;;;;;;;;;15.82;74.04;100897.88;5047079;28;19973;-66
2022/10/16 00:04:36;;;;;;;;;;;;;;;15.82;74.12;100897.88;5048495;28;19923;-63
2022/10/16 00:07:02;;;;;;;;;;;;;;;15.82;74.12;100892.56;5045817;28;20341;-64
2022/10/16 00:09:27;;;;;;;;;;;;;;;15.83;74.10;100894.25;5044936;28;19963;-64
2022/10/16 00:11:52;;;;;;;;;;;;;;;15.82;74.02;100897.03;5047281;28;19921;-64
2022/10/16 00:14:17;;;;;;;;;;;;;;;15.82;74.09;100902.34;5042792;28;19917;-66
2022/10/16 00:16:43;;;;;;;;;;;;;;;15.80;74.13;100897.16;5044749;28;20382;-64
2022/10/16 00:19:09;;;;;;;;;;;;;;;15.80;74.20;100902.47;5045860;28;19963;-59
2022/10/16 00:21:35;;;;;;;;;;;;;;;15.80;74.00;100905.13;5045733;28;20007;-63
2022/10/16 00:24:01;;;;;;;;;;;;;;;15.80;74.06;100905.13;5044724;28;20047;-59
2022/10/16 00:26:28;;;;;;;;;;;;;;;15.80;74.14;100915.75;5042918;28;19933;-61
2022/10/16 00:28:53;;;;;;;;;;;;;;;15.79;73.98;100924.66;5046881;28;19921;-64
2022/10/16 00:31:20;;;;;;;;;;;;;;;15.79;74.12;100929.09;5051544;28;19946;-60
2022/10/16 00:33:45;;;;;;;;;;;;;;;15.79;74.10;100924.66;5045486;28;19932;-60
2022/10/16 00:36:12;;;;;;;;;;;;;;;15.81;74.06;100927.19;5046898;28;19926;-60
2022/10/16 00:38:38;;;;;;;;;;;;;;;15.80;74.18;100923.69;5049403;28;19920;-62
2022/10/16 00:41:03;;;;;;;;;;;;;;;15.82;74.20;100919.09;5045855;28;19917;-65
2022/10/16 00:43:31;;;;;;;;;;;;;;;15.81;74.12;100925.34;5042662;28;19921;-59
2022/10/16 00:45:57;;;;;;;;;;;;;;;15.81;74.13;100921.88;5043894;28;19942;-64
2022/10/16 00:48:22;;;;;;;;;;;;;;;15.81;74.08;100924.53;5046780;28;20366;-64
2022/10/16 00:50:47;;;;;;;;;;;;;;;15.81;74.18;100919.22;5048660;28;19924;-64
2022/10/16 00:53:13;;;;;;;;;;;;;;;15.81;74.21;100924.53;5044077;28;19983;-59
2022/10/16 00:55:39;;;;;;;;;;;;;;;15.81;74.10;100928.00;5046045;28;20339;-59
2022/10/16 00:58:04;;;;;;;;;;;;;;;15.80;74.10;100921.03;5041751;28;20445;-65
2022/10/16 01:00:30;;;;;;;;;;;;;;;15.79;74.25;100932.63;5036807;28;20394;-63
2022/10/16 01:02:56;;;;;;;;;;;;;;;15.79;74.09;100931.75;5041410;28;19925;-64
2022/10/16 01:05:23;;;;;;;;;;;;;;;15.78;74.07;100943.31;5046056;28;20056;-62
2022/10/16 01:08:09;;;;;;;;;;;;;;;15.78;74.10;100943.31;5044231;28;20506;-64
2022/10/16 01:10:48;;;;;;;;;;;;;;;15.76;74.26;100942.59;5047605;28;19927;-65
2022/10/16 01:13:27;;;;;;;;;;;;;;;15.74;74.37;100940.06;5045686;28;19925;-66
2022/10/16 01:15:52;;;;;;;;;;;;;;;15.74;74.37;100932.13;5043998;28;20192;-64
2022/10/16 01:18:27;;;;;;;;;;;;;;;15.73;74.31;100938.38;5043578;28;20434;-66
2022/10/16 01:20:53;;;;;;;;;;;;;;;15.73;74.34;100949.00;5044184;28;19931;-64
2022/10/16 01:23:21;;;;;;;;;;;;;;;15.71;74.32;100948.25;5043006;28;20062;-65
2022/10/16 01:25:52;;;;;;;;;;;;;;;15.70;74.39;100951.88;5045239;28;20000;-64
2022/10/16 01:28:18;;;;;;;;;;;;;;;15.70;74.44;100960.69;5044442;28;19916;-65
2022/10/16 01:30:45;;;;;;;;;;;;;;;15.70;74.48;100959.84;5046664;28;19951;-64
2022/10/16 01:33:21;;;;;;;;;;;;;;;15.70;74.41;100967.78;5046186;28;20302;-65
2022/10/16 01:35:52;;;;;;;;;;;;;;;15.69;74.41;100956.34;5053931;28;20050;-64
2022/10/16 01:38:21;;;;;;;;;;;;;;;15.68;74.42;100951.13;5043546;28;19929;-65
2022/10/16 01:40:49;;;;;;;;;;;;;;;15.67;74.44;100957.41;5033920;28;19924;-64
2022/10/16 01:43:17;;;;;;;;;;;;;;;15.66;74.54;100956.56;5039189;28;20011;-64
2022/10/16 01:45:44;;;;;;;;;;;;;;;15.66;74.56;100961.88;5040442;28;19929;-65
2022/10/16 01:48:11;;;;;;;;;;;;;;;15.66;74.42;100963.66;5044852;28;19967;-64
2022/10/16 01:50:39;;;;;;;;;;;;;;;15.66;74.53;100961.88;5047436;28;19928;-64
2022/10/16 01:53:06;;;;;;;;;;;;;;;15.65;74.56;100975.28;5048660;28;19923;-62
2022/10/16 01:55:33;;;;;;;;;;;;;;;15.65;74.46;100973.44;5045096;28;19929;-65
2022/10/16 01:57:59;;;;;;;;;;;;;;;15.65;74.64;100975.28;5049659;28;19916;-61
2022/10/16 02:00:26;;;;;;;;;;;;;;;15.66;74.57;100975.16;5044631;28;19925;-65
2022/10/16 02:02:54;;;;;;;;;;;;;;;15.67;74.63;100973.31;5046076;28;19924;-65
2022/10/16 02:05:20;;;;;;;;;;;;;;;15.67;74.59;100968.00;5048159;28;20283;-65
2022/10/16 02:07:45;;;;;;;;;;;;;;;15.66;74.56;100971.63;5044818;28;20400;-64
2022/10/16 02:10:10;;;;;;;;;;;;;;;15.67;74.67;100970.66;5049335;28;19931;-65
2022/10/16 02:12:39;;;;;;;;;;;;;;;15.68;74.50;100980.31;5046596;28;20813;-65
2022/10/16 02:15:04;;;;;;;;;;;;;;;15.67;74.48;100987.44;5045702;28;19951;-65
2022/10/16 02:17:30;;;;;;;;;;;;;;;15.67;74.64;100983.94;5045203;28;20453;-65
2022/10/16 02:19:56;;;;;;;;;;;;;;;15.67;74.68;100989.22;5046170;28;19924;-64
2022/10/16 02:22:30;;;;;;;;;;;;;;;15.68;74.53;100996.22;5049619;28;19917;-64
2022/10/16 02:25:14;;;;;;;;;;;;;;;15.68;74.51;100996.22;5050655;28;19959;-65
2022/10/16 02:27:51;;;;;;;;;;;;;;;15.69;74.59;100987.31;5049210;28;19920;-64
2022/10/16 02:30:30;;;;;;;;;;;;;;;15.67;74.53;100987.44;5045004;28;19921;-64
2022/10/16 02:32:57;;;;;;;;;;;;;;;15.68;74.47;100982.97;5047632;28;20353;-63
2022/10/16 02:35:23;;;;;;;;;;;;;;;15.70;74.48;100989.00;5051417;28;20019;-63
2022/10/16 02:37:49;;;;;;;;;;;;;;;15.70;74.34;100986.34;5045740;28;20856;-65
2022/10/16 02:40:15;;;;;;;;;;;;;;;15.70;74.47;100984.56;5052173;28;20501;-64
2022/10/16 02:42:41;;;;;;;;;;;;;;;15.70;74.47;100978.41;5047018;28;19933;-62
2022/10/16 02:45:07;;;;;;;;;;;;;;;15.70;74.26;100979.25;5047036;28;19986;-64
2022/10/16 02:47:32;;;;;;;;;;;;;;;15.72;74.44;100995.06;5052640;28;19925;-64
2022/10/16 02:49:57;;;;;;;;;;;;;;;15.71;74.34;101006.63;5051497;28;19920;-64
2022/10/16 02:52:23;;;;;;;;;;;;;;;15.70;74.48;100996.97;5046091;28;20175;-65
2022/10/16 02:54:48;;;;;;;;;;;;;;;15.70;74.29;101002.28;5052359;28;20408;-65
2022/10/16 02:57:14;;;;;;;;;;;;;;;15.69;74.47;101004.09;5053560;28;19925;-64
2022/10/16 02:59:39;;;;;;;;;;;;;;;15.69;74.36;100997.94;5039970;28;19929;-66
2022/10/16 03:02:05;;;;;;;;;;;;;;;15.69;74.35;101003.22;5041801;28;20913;-65
2022/10/16 03:04:30;;;;;;;;;;;;;;;15.68;74.36;101007.72;5045020;28;20321;-66
2022/10/16 03:06:55;;;;;;;;;;;;;;;15.70;74.39;101004.94;5047057;28;19924;-64
2022/10/16 03:09:20;;;;;;;;;;;;;;;15.69;74.41;101008.53;5050485;28;19916;-64
2022/10/16 03:11:46;;;;;;;;;;;;;;;15.71;74.38;101006.63;5052029;28;20301;-63
2022/10/16 03:14:11;;;;;;;;;;;;;;;15.72;74.45;101005.66;5042978;28;20027;-64
2022/10/16 03:16:36;;;;;;;;;;;;;;;15.72;74.39;101013.63;5043389;28;19925;-64
2022/10/16 03:19:02;;;;;;;;;;;;;;;15.73;74.46;101017.97;5044453;28;20654;-64
2022/10/16 03:21:27;;;;;;;;;;;;;;;15.74;74.42;101022.31;5047693;28;19924;-65
2022/10/16 03:23:52;;;;;;;;;;;;;;;15.74;74.29;101022.31;5049272;28;20286;-64
2022/10/16 03:26:18;;;;;;;;;;;;;;;15.74;74.23;101024.97;5050043;28;19924;-64
2022/10/16 03:28:43;;;;;;;;;;;;;;;15.75;74.29;101029.31;5046531;28;19936;-64
2022/10/16 03:31:08;;;;;;;;;;;;;;;15.74;74.29;101034.72;5047579;28;19970;-64
2022/10/16 03:33:34;;;;;;;;;;;;;;;15.74;74.39;101032.06;5045372;28;19927;-65
2022/10/16 03:36:00;;;;;;;;;;;;;;;15.74;74.44;101032.06;5051696;28;20013;-65
2022/10/16 03:38:25;;;;;;;;;;;;;;;15.72;74.39;101037.50;5051665;28;19924;-65
2022/10/16 03:40:50;;;;;;;;;;;;;;;15.71;74.51;101030.50;5053381;28;19920;-64
2022/10/16 03:43:16;;;;;;;;;;;;;;;15.72;74.48;101045.44;5044252;28;20305;-63
2022/10/16 03:45:41;;;;;;;;;;;;;;;15.73;74.42;101049.81;5049084;28;20006;-65
2022/10/16 03:48:06;;;;;;;;;;;;;;;15.75;74.50;101049.69;5047074;28;20326;-65
2022/10/16 03:50:31;;;;;;;;;;;;;;;15.74;74.51;101055.94;5055069;28;19917;-64
2022/10/16 03:52:57;;;;;;;;;;;;;;;15.74;74.54;101048.84;5046867;28;19932;-65
2022/10/16 03:55:22;;;;;;;;;;;;;;;15.74;74.59;101047.97;5046280;28;19964;-65
2022/10/16 03:57:47;;;;;;;;;;;;;;;15.74;74.52;101051.50;5047008;28;19956;-64
2022/10/16 04:00:13;;;;;;;;;;;;;;;15.76;74.66;101060.19;5052115;28;19921;-64
2022/10/16 04:02:39;;;;;;;;;;;;;;;15.75;74.71;101050.53;5051264;28;19951;-65
2022/10/16 04:05:04;;;;;;;;;;;;;;;15.77;74.75;101059.22;5052724;28;20286;-64
2022/10/16 04:07:29;;;;;;;;;;;;;;;15.79;74.72;101067.06;5048553;28;19975;-65
2022/10/16 04:09:55;;;;;;;;;;;;;;;15.78;74.71;101066.22;5048339;28;19932;-65
2022/10/16 04:12:20;;;;;;;;;;;;;;;15.79;74.71;101075.88;5040364;28;19917;-65
2022/10/16 04:14:46;;;;;;;;;;;;;;;15.80;74.77;101079.38;5053231;28;19920;-65
2022/10/16 04:17:11;;;;;;;;;;;;;;;15.79;74.73;101080.34;5043896;28;19925;-64
2022/10/16 04:19:36;;;;;;;;;;;;;;;15.78;74.75;101082.16;5044137;28;19924;-65
2022/10/16 04:22:02;;;;;;;;;;;;;;;15.76;74.82;101084.06;5049301;28;19917;-65
2022/10/16 04:24:27;;;;;;;;;;;;;;;15.76;74.83;101081.41;5047470;28;20012;-62
2022/10/16 04:26:52;;;;;;;;;;;;;;;15.75;74.91;101076.19;5047421;28;19921;-63
2022/10/16 04:29:18;;;;;;;;;;;;;;;15.75;74.90;101074.41;5048570;28;19920;-64
2022/10/16 04:31:43;;;;;;;;;;;;;;;15.74;74.83;101078.03;5050531;28;19917;-64
2022/10/16 04:34:08;;;;;;;;;;;;;;;15.73;74.87;101083.47;5046803;28;20067;-65
2022/10/16 04:36:34;;;;;;;;;;;;;;;15.73;74.76;101084.28;5048842;28;19920;-65
2022/10/16 04:38:59;;;;;;;;;;;;;;;15.74;74.79;101079.81;5046829;28;19924;-65
2022/10/16 04:41:24;;;;;;;;;;;;;;;15.72;74.71;101093.22;5044318;28;19921;-63
2022/10/16 04:43:49;;;;;;;;;;;;;;;15.70;74.76;101084.50;5043843;28;20023;-65
2022/10/16 04:46:15;;;;;;;;;;;;;;;15.70;74.77;101089.81;5045527;28;20073;-65
2022/10/16 04:48:40;;;;;;;;;;;;;;;15.69;74.73;101093.44;5051806;28;19952;-63
2022/10/16 04:51:05;;;;;;;;;;;;;;;15.68;74.72;101105.00;5048428;28;19922;-65
2022/10/16 04:53:31;;;;;;;;;;;;;;;15.67;74.52;101095.34;5038876;28;20074;-63
2022/10/16 04:55:57;;;;;;;;;;;;;;;15.66;74.57;101093.66;5044411;28;20011;-64
2022/10/16 04:58:22;;;;;;;;;;;;;;;15.65;74.64;101103.44;5045884;28;20385;-64
2022/10/16 05:00:47;;;;;;;;;;;;;;;15.62;74.65;101098.34;5049749;28;20420;-65
2022/10/16 05:03:13;;;;;;;;;;;;;;;15.59;74.66;101103.03;5047592;28;20404;-63
2022/10/16 05:05:42;;;;;;;;;;;;;;;15.56;74.83;101101.47;5047547;28;20369;-64
2022/10/16 05:08:07;;;;;;;;;;;;;;;15.55;74.73;101107.72;5040420;28;19990;-65
2022/10/16 05:10:32;;;;;;;;;;;;;;;15.52;74.81;101114.06;5045526;28;20583;-65
2022/10/16 05:12:58;;;;;;;;;;;;;;;15.51;74.78;101112.38;5046911;28;19921;-65
2022/10/16 05:15:24;;;;;;;;;;;;;;;15.49;74.88;101113.47;5047637;28;19933;-66
2022/10/16 05:17:51;;;;;;;;;;;;;;;15.47;74.91;101115.38;5049414;28;19924;-64
2022/10/16 05:20:17;;;;;;;;;;;;;;;15.44;74.98;101116.44;5044211;28;19932;-64
2022/10/16 05:22:42;;;;;;;;;;;;;;;15.44;74.87;101113.81;5043775;28;19928;-66
2022/10/16 05:25:07;;;;;;;;;;;;;;;15.42;74.85;101118.38;5051260;28;20003;-63
2022/10/16 05:27:33;;;;;;;;;;;;;;;15.42;75.06;101117.53;5048452;28;19921;-65
2022/10/16 05:29:58;;;;;;;;;;;;;;;15.41;74.82;101121.13;5053360;28;19921;-64
2022/10/16 05:32:23;;;;;;;;;;;;;;;15.39;74.86;101134.50;5053760;28;19952;-64
2022/10/16 05:34:50;;;;;;;;;;;;;;;15.37;74.89;101144.34;5052112;28;20001;-64
2022/10/16 05:37:15;;;;;;;;;;;;;;;15.35;74.97;101141.00;5053843;28;19933;-64
2022/10/16 05:39:40;;;;;;;;;;;;;;;15.34;75.08;101141.94;5045359;28;20232;-64
2022/10/16 05:42:06;;;;;;;;;;;;;;;15.33;75.13;101140.25;5047171;28;20002;-64
2022/10/16 05:44:31;;;;;;;;;;;;;;;15.30;75.15;101141.28;5050201;28;19952;-66
2022/10/16 05:46:56;;;;;;;;;;;;;;;15.30;75.29;101145.75;5051494;28;19931;-62
2022/10/16 05:49:22;;;;;;;;;;;;;;;15.28;75.26;101145.84;5057331;28;20352;-63
2022/10/16 05:51:47;;;;;;;;;;;;;;;15.27;75.20;101153.94;5053990;28;19929;-66
2022/10/16 05:54:13;;;;;;;;;;;;;;;15.26;75.26;101160.19;5052424;28;19974;-65
2022/10/16 05:56:38;;;;;;;;;;;;;;;15.23;75.22;101167.41;5052193;28;19920;-64
2022/10/16 05:59:04;;;;;;;;;;;;;;;15.24;75.15;101174.41;5049871;28;19921;-66
2022/10/16 06:01:30;;;;;;;;;;;;;;;15.22;75.26;101178.94;5055940;28;20247;-64
2022/10/16 06:03:56;;;;;;;;;;;;;;;15.23;75.21;101183.31;5059519;28;20420;-64
2022/10/16 06:06:23;;;;;;;;;;;;;;;15.26;75.12;101192.88;5051301;28;20376;-65
2022/10/16 06:08:49;;;;;;;;;;;;;;;15.27;75.07;101189.25;5050628;28;19927;-65
2022/10/16 06:11:16;;;;;;;;;;;;;;;15.28;75.27;101179.50;5047197;28;20008;-64
2022/10/16 06:13:42;;;;;;;;;;;;;;;15.29;75.16;101178.53;5045327;28;20370;-64
2022/10/16 06:16:08;;;;;;;;;;;;;;;15.28;75.14;101172.38;5048984;28;19928;-65
2022/10/16 06:18:33;;;;;;;;;;;;;;;15.29;75.14;101170.56;5046300;28;20157;-64
2022/10/16 06:20:59;;;;;;;;;;;;;;;15.29;75.21;101175.88;5049272;28;19924;-63
2022/10/16 06:23:25;;;;;;;;;;;;;;;15.31;75.21;101195.19;5050387;28;19924;-65
2022/10/16 06:25:50;;;;;;;;;;;;;;;15.32;75.21;101196.88;5048607;28;20028;-64
2022/10/16 06:28:15;;;;;;;;;;;;;;;15.32;75.11;101197.72;5044959;28;19917;-65
2022/10/16 06:30:43;;;;;;;;;;;;;;;15.35;75.07;101204.63;5050449;28;19956;-59
2022/10/16 06:33:09;;;;;;;;;;;;;;;15.36;75.03;101204.50;5043589;28;19979;-62
2022/10/16 06:35:34;;;;;;;;;;;;;;;15.39;75.05;101204.28;5054411;28;19924;-62
2022/10/16 06:38:00;;;;;;;;;;;;;;;15.42;74.99;101203.22;5055042;28;19928;-59
2022/10/16 06:40:25;;;;;;;;;;;;;;;15.45;74.92;101210.09;5057590;28;19940;-60
2022/10/16 06:42:51;;;;;;;;;;;;;;;15.46;74.93;101214.44;5046936;28;20455;-63
2022/10/16 06:45:17;;;;;;;;;;;;;;;15.46;74.94;101219.75;5052162;28;19917;-61
2022/10/16 06:47:42;;;;;;;;;;;;;;;15.46;74.77;101215.31;5047558;28;19924;-59
2022/10/16 06:50:07;;;;;;;;;;;;;;;15.46;74.84;101210.00;5057898;28;20300;-60
2022/10/16 06:52:33;;;;;;;;;;;;;;;15.47;74.86;101206.41;5056161;28;19987;-65
2022/10/16 06:54:59;;;;;;;;;;;;;;;15.49;74.68;101208.94;5046129;28;20427;-59
2022/10/16 06:57:27;;;;;;;;;;;;;;;15.52;74.73;101214.03;5047985;28;19920;-59
2022/10/16 06:59:52;;;;;;;;;;;;;;;15.52;74.64;101214.84;5049544;28;19990;-60
2022/10/16 07:02:17;;;;;;;;;;;;;;;15.53;74.63;101224.50;5039286;28;19921;-61
2022/10/16 07:04:43;;;;;;;;;;;;;;;15.55;74.74;101235.88;5046059;28;20370;-62
2022/10/16 07:07:08;;;;;;;;;;;;;;;15.58;74.72;101228.66;5034601;28;19986;-60
2022/10/16 07:09:33;;;;;;;;;;;;;;;15.60;74.61;101226.75;5040876;28;19928;-62
2022/10/16 07:11:58;;;;;;;;;;;;;;;15.63;74.55;101231.84;5046696;28;19932;-59
2022/10/16 07:14:24;;;;;;;;;;;;;;;15.64;74.59;101239.66;5043483;28;19920;-62
2022/10/16 07:16:50;;;;;;;;;;;;;;;15.67;74.52;101243.91;5046894;28;19920;-65
2022/10/16 07:19:17;;;;;;;;;;;;;;;15.69;74.52;101242.84;5038597;28;19974;-62
2022/10/16 07:21:43;;;;;;;;;;;;;;;15.73;74.55;101247.94;5037129;28;20306;-59
2022/10/16 07:24:13;;;;;;;;;;;;;;;15.74;74.69;101250.47;5041765;28;19936;-62
2022/10/16 07:26:39;;;;;;;;;;;;;;;15.77;74.64;101255.56;5050275;28;19932;-61
2022/10/16 07:29:04;;;;;;;;;;;;;;;15.80;74.55;101258.00;5046662;28;19917;-64
2022/10/16 07:31:30;;;;;;;;;;;;;;;15.82;74.57;101266.69;5047749;28;19939;-65
2022/10/16 07:33:57;;;;;;;;;;;;;;;15.84;74.65;101267.41;5046961;28;20202;-65
2022/10/16 07:36:23;;;;;;;;;;;;;;;15.89;74.52;101277.72;5049696;28;19921;-64
2022/10/16 07:38:48;;;;;;;;;;;;;;;15.92;74.56;101271.38;5035591;28;20370;-65
2022/10/16 07:41:15;;;;;;;;;;;;;;;15.95;74.45;101271.16;5037679;28;19924;-65
2022/10/16 07:43:44;;;;;;;;;;;;;;;15.98;74.35;101268.25;5035959;28;20011;-66
2022/10/16 07:46:10;;;;;;;;;;;;;;;16.03;74.38;101274.09;5044297;28;19929;-64
2022/10/16 07:48:35;;;;;;;;;;;;;;;16.08;74.31;101279.06;5044382;28;19923;-64
2022/10/16 07:51:02;;;;;;;;;;;;;;;16.12;74.21;101280.53;5044811;28;20345;-64
2022/10/16 07:53:28;;;;;;;;;;;;;;;16.17;74.04;101290.81;5044800;28;19924;-64
2022/10/16 07:56:00;;;;;;;;;;;;;;;16.21;74.16;101289.63;5040851;28;19946;-65
2022/10/16 07:58:25;;;;;;;;;;;;;;;16.26;73.85;101298.13;5043715;28;19951;-65
2022/10/16 08:00:51;;;;;;;;;;;;;;;16.31;73.86;101285.34;5034232;28;19925;-65
2022/10/16 08:03:16;;;;;;;;;;;;;;;16.36;73.95;101287.66;5041621;28;19986;-65
2022/10/16 08:05:41;;;;;;;;;;;;;;;16.41;73.61;101282.88;5043369;28;19935;-62
2022/10/16 08:08:11;;;;;;;;;;;;;;;16.44;73.67;101291.44;5041774;28;19942;-65
2022/10/16 08:10:45;;;;;;;;;;;;;;;16.48;73.62;101291.22;5044707;28;19917;-61
2022/10/16 08:13:10;;;;;;;;;;;;;;;16.50;73.43;101300.75;5040531;28;19917;-62
2022/10/16 08:15:36;;;;;;;;;;;;;;;16.52;73.61;101287.38;5042875;28;20317;-66
2022/10/16 08:18:02;;;;;;;;;;;;;;;16.53;73.40;101294.41;5041517;28;20554;-66
2022/10/16 08:20:28;;;;;;;;;;;;;;;16.55;73.52;101287.16;5043407;28;19970;-63
2022/10/16 08:22:54;;;;;;;;;;;;;;;16.56;73.49;101283.53;5044224;28;19921;-63
2022/10/16 08:25:21;;;;;;;;;;;;;;;16.57;73.49;101291.38;5043096;28;19979;-67
2022/10/16 08:27:46;;;;;;;;;;;;;;;16.58;73.29;101285.13;5042363;28;19935;-65
2022/10/16 08:30:11;;;;;;;;;;;;;;;16.60;73.34;101285.84;5045888;28;21967;-61
2022/10/16 08:32:36;;;;;;;;;;;;;;;16.63;73.19;101300.72;5023416;28;19936;-62
2022/10/16 08:35:02;;;;;;;;;;;;;;;16.65;73.42;101298.78;5044442;28;20344;-64
2022/10/16 08:37:31;;;;;;;;;;;;;;;16.68;73.10;101287.94;5051154;28;20310;-65
2022/10/16 08:39:56;;;;;;;;;;;;;;;16.72;73.27;101284.06;5044081;28;20149;-67
2022/10/16 08:42:24;;;;;;;;;;;;;;;16.76;73.03;101290.84;5045610;28;19944;-65
2022/10/16 08:45:12;;;;;;;;;;;;;;;16.78;72.85;101301.38;5041326;28;21332;-63
2022/10/16 08:47:50;;;;;;;;;;;;;;;16.81;72.90;101297.63;5043219;28;19924;-64
2022/10/16 08:50:26;;;;;;;;;;;;;;;16.83;72.66;101296.53;5042892;28;19917;-61
2022/10/16 08:52:52;;;;;;;;;;;;;;;16.86;72.72;101300.81;5043979;28;19917;-63
2022/10/16 08:55:29;;;;;;;;;;;;;;;16.90;72.74;101296.94;5045934;28;19927;-62
2022/10/16 08:57:55;;;;;;;;;;;;;;;16.94;72.52;101293.09;5043846;28;19917;-63
2022/10/16 09:00:24;;;;;;;;;;;;;;;16.96;72.50;101301.81;5044190;28;19921;-60
2022/10/16 09:02:49;;;;;;;;;;;;;;;16.99;72.34;101306.03;5047810;28;19921;-64
2022/10/16 09:05:18;;;;;;;;;;;;;;;17.02;72.29;101303.16;5049488;28;19942;-62
2022/10/16 09:07:49;;;;;;;;;;;;;;;17.03;72.22;101303.03;5046358;28;19932;-65
2022/10/16 09:10:26;;;;;;;;;;;;;;;17.04;72.26;101296.75;5043406;28;19921;-66
2022/10/16 09:13:21;;;;;;;;;;;;;;;17.07;72.19;101306.31;5042926;28;20344;-64
2022/10/16 09:16:01;;;;;;;;;;;;;;;17.10;71.88;101307.91;4989515;28;19917;-64
2022/10/16 09:18:30;;;;;;;;;;;;;;;17.10;71.96;101303.41;5041766;28;20374;-64
2022/10/16 09:21:17;;;;;;;;;;;;;;;17.13;72.05;101299.69;5040954;28;20382;-66
2022/10/16 09:23:43;;;;;;;;;;;;;;;17.18;71.79;101316.13;5037423;28;20026;-65
2022/10/16 09:26:11;;;;;;;;;;;;;;;17.21;71.81;101318.53;5034969;28;19955;-64
2022/10/16 09:28:37;;;;;;;;;;;;;;;17.27;71.89;101320.75;5036417;28;20019;-66
2022/10/16 09:31:02;;;;;;;;;;;;;;;17.30;71.54;101317.84;5036001;28;19974;-65
2022/10/16 09:33:30;;;;;;;;;;;;;;;17.35;71.46;101323.66;5031508;28;19933;-64
2022/10/16 09:35:58;;;;;;;;;;;;;;;17.39;71.50;101312.78;5026599;28;19917;-63
2022/10/16 09:38:26;;;;;;;;;;;;;;;17.44;71.36;101326.56;5035887;28;19983;-64
2022/10/16 09:40:52;;;;;;;;;;;;;;;17.46;71.37;101330.81;5041180;28;19925;-60
2022/10/16 09:43:17;;;;;;;;;;;;;;;17.48;71.17;101333.31;5028897;28;19959;-64
2022/10/16 09:45:43;;;;;;;;;;;;;;;17.51;71.26;101333.09;5037384;28;19967;-63
2022/10/16 09:48:12;;;;;;;;;;;;;;;17.54;70.94;101332.88;5035789;28;19933;-65
2022/10/16 09:50:38;;;;;;;;;;;;;;;17.58;70.73;101342.31;5034408;28;19927;-63
2022/10/16 09:53:13;;;;;;;;;;;;;;;17.60;71.06;101327.06;5037581;28;19994;-63
2022/10/16 09:55:51;;;;;;;;;;;;;;;17.59;71.02;101328.03;5035744;28;20050;-59
2022/10/16 09:58:17;;;;;;;;;;;;;;;17.60;70.73;101335.06;5035088;28;19948;-62
2022/10/16 10:00:48;;;;;;;;;;;;;;;17.62;71.02;101333.09;5030769;28;19960;-66
2022/10/16 10:03:29;;;;;;;;;;;;;;;17.67;70.71;101346.06;5033094;28;19924;-63
2022/10/16 10:05:54;;;;;;;;;;;;;;;17.71;70.64;101344.84;5028017;28;19916;-63
2022/10/16 10:08:19;;;;;;;;;;;;;;;17.77;70.65;101347.03;5031219;28;20459;-65
2022/10/16 10:10:48;;;;;;;;;;;;;;;17.83;70.62;101343.03;5034035;28;19944;-63
2022/10/16 10:13:20;;;;;;;;;;;;;;;17.89;70.18;101347.00;5027465;28;19920;-64
2022/10/16 10:15:45;;;;;;;;;;;;;;;17.93;70.43;101343.97;5029549;28;19932;-65
2022/10/16 10:18:22;;;;;;;;;;;;;;;18.00;70.35;101346.19;5026938;28;19925;-62
2022/10/16 10:20:57;;;;;;;;;;;;;;;18.07;70.31;101339.44;5031022;28;20425;-64
2022/10/16 10:23:24;;;;;;;;;;;;;;;18.11;70.07;101344.38;5037527;28;19920;-63
2022/10/16 10:26:01;;;;;;;;;;;;;;;18.17;69.86;101345.69;5038676;28;19924;-63
2022/10/16 10:28:39;;;;;;;;;;;;;;;18.22;69.96;101354.19;5040471;28;19924;-65
2022/10/16 10:31:23;;;;;;;;;;;;;;;18.29;70.17;101365.19;5033632;28;19960;-64
2022/10/16 10:33:48;;;;;;;;;;;;;;;18.33;69.80;101365.78;5035955;28;19947;-63
2022/10/16 10:36:19;;;;;;;;;;;;;;;18.34;69.78;101362.97;5037300;28;20324;-66
2022/10/16 10:38:56;;;;;;;;;;;;;;;18.33;69.97;101360.44;5031275;28;19920;-67
2022/10/16 10:41:34;;;;;;;;;;;;;;;18.32;69.97;101361.41;5033710;28;20390;-66
2022/10/16 10:44:18;;;;;;;;;;;;;;;18.31;70.00;101367.69;5029483;28;19925;-66
2022/10/16 10:46:49;;;;;;;;;;;;;;;18.30;70.02;101376.66;5030788;28;19952;-63
2022/10/16 10:49:32;;;;;;;;;;;;;;;18.27;69.75;101372.44;5035249;28;19917;-62
2022/10/16 10:52:08;;;;;;;;;;;;;;;18.25;69.57;101377.88;5027682;28;19921;-63
2022/10/16 10:54:45;;;;;;;;;;;;;;;18.25;70.01;101372.53;5035945;28;20417;-64
2022/10/16 10:57:30;;;;;;;;;;;;;;;18.22;69.99;101375.47;5033539;28;20626;-64
2022/10/16 11:00:02;;;;;;;;;;;;;;;18.17;70.05;101369.66;4981574;28;19916;-67
2022/10/16 11:02:37;;;;;;;;;;;;;;;18.18;70.22;101370.50;5036551;28;19917;-62
2022/10/16 11:05:06;;;;;;;;;;;;;;;18.13;70.27;101366.41;5042015;28;20011;-63
2022/10/16 11:07:34;;;;;;;;;;;;;;;18.11;70.17;101367.47;5035913;28;20049;-66
2022/10/16 11:10:13;;;;;;;;;;;;;;;18.10;70.28;101377.31;5028223;28;19951;-63
2022/10/16 11:12:42;;;;;;;;;;;;;;;18.10;70.21;101384.44;5037808;28;19935;-65
2022/10/16 11:15:12;;;;;;;;;;;;;;;18.08;70.41;101381.91;5036841;28;19928;-60
2022/10/16 11:17:45;;;;;;;;;;;;;;;18.08;70.22;101389.03;5031807;28;19964;-65
2022/10/16 11:20:31;;;;;;;;;;;;;;;18.08;70.18;101389.03;5031133;28;20016;-65
2022/10/16 11:23:00;;;;;;;;;;;;;;;18.08;70.38;101386.38;5032268;28;20084;-65
2022/10/16 11:25:32;;;;;;;;;;;;;;;18.09;70.21;101396.03;5034990;28;19946;-65
2022/10/16 11:28:07;;;;;;;;;;;;;;;18.12;70.49;101395.81;5036068;28;20044;-62
2022/10/16 11:30:38;;;;;;;;;;;;;;;18.13;70.34;101398.38;5037889;28;20012;-65
2022/10/16 11:33:10;;;;;;;;;;;;;;;18.15;70.29;101389.41;5037368;28;19924;-65
2022/10/16 11:35:44;;;;;;;;;;;;;;;18.16;70.42;101389.28;5036335;28;19932;-64
2022/10/16 11:38:30;;;;;;;;;;;;;;;18.18;70.18;101384.69;5037239;28;19924;-67
2022/10/16 11:40:58;;;;;;;;;;;;;;;18.20;70.11;101389.88;5045069;28;19924;-67
2022/10/16 11:43:35;;;;;;;;;;;;;;;18.20;70.28;101393.41;5038896;28;19958;-67
2022/10/16 11:46:09;;;;;;;;;;;;;;;18.22;70.07;101391.47;5036081;28;19956;-66
2022/10/16 11:48:43;;;;;;;;;;;;;;;18.23;70.17;101387.81;5036902;28;19920;-62
2022/10/16 11:51:12;;;;;;;;;;;;;;;18.24;70.26;101394.81;5031422;28;19925;-63
2022/10/16 11:53:49;;;;;;;;;;;;;;;18.27;70.22;101389.25;5029998;28;21195;-62
2022/10/16 11:56:19;;;;;;;;;;;;;;;18.28;69.79;101385.63;5032276;28;19990;-62
2022/10/16 11:58:47;;;;;;;;;;;;;;;18.28;69.65;101385.63;5021328;28;19916;-64
2022/10/16 12:01:19;;;;;;;;;;;;;;;18.33;69.86;101387.06;5024736;28;20382;-62
2022/10/16 12:03:45;;;;;;;;;;;;;;;18.37;69.58;101389.38;5027758;28;20340;-65
2022/10/16 12:06:13;;;;;;;;;;;;;;;18.40;69.39;101382.94;5026664;28;20493;-62
2022/10/16 12:08:39;;;;;;;;;;;;;;;18.43;69.38;101385.34;5034916;28;20015;-62
2022/10/16 12:11:19;;;;;;;;;;;;;;;18.47;69.44;101385.94;5032083;28;20012;-64
2022/10/16 12:13:47;;;;;;;;;;;;;;;18.48;69.22;101388.50;5029075;28;20029;-60
2022/10/16 12:16:13;;;;;;;;;;;;;;;18.48;68.86;101391.16;5030374;28;20406;-65
2022/10/16 12:18:39;;;;;;;;;;;;;;;18.51;68.72;101390.94;5034062;28;20370;-65
2022/10/16 12:21:06;;;;;;;;;;;;;;;18.55;68.93;101388.84;5036549;28;19928;-61
2022/10/16 12:23:33;;;;;;;;;;;;;;;18.60;68.64;101394.66;5031382;28;19917;-60
2022/10/16 12:25:59;;;;;;;;;;;;;;;18.63;68.32;101394.38;5035246;28;20377;-66
2022/10/16 12:28:28;;;;;;;;;;;;;;;18.67;68.43;101398.50;5042017;28;19917;-66
2022/10/16 12:30:58;;;;;;;;;;;;;;;18.72;68.19;101398.13;5039986;28;20020;-67
2022/10/16 12:33:26;;;;;;;;;;;;;;;18.76;67.90;101404.91;5039954;28;19928;-63
2022/10/16 12:35:52;;;;;;;;;;;;;;;18.80;67.88;101401.00;5049898;28;19973;-65
2022/10/16 12:38:35;;;;;;;;;;;;;;;18.85;67.38;101397.97;5035374;28;20413;-60
2022/10/16 12:41:02;;;;;;;;;;;;;;;18.87;67.50;101412.84;5038959;28;20011;-60